createdAt,value
2022-08-03T00:00:04.090Z,66
2022-08-03T00:01:00.867Z,66
2022-08-03T00:02:00.975Z,66
2022-08-03T00:03:00.962Z,66
2022-08-03T00:04:00.970Z,66
2022-08-03T00:05:03.810Z,66
2022-08-03T00:06:04.497Z,66
2022-08-03T00:07:00.908Z,66
2022-08-03T00:08:00.982Z,66
2022-08-03T00:09:00.931Z,66
2022-08-03T00:10:04.316Z,66
2022-08-03T00:11:00.942Z,66
2022-08-03T00:12:01.039Z,66
2022-08-03T00:13:00.956Z,66
2022-08-03T00:14:01.044Z,67
2022-08-03T00:15:03.757Z,67
2022-08-03T00:16:01.098Z,67
2022-08-03T00:17:00.983Z,67
2022-08-03T00:18:01.108Z,67
2022-08-03T00:19:01.160Z,67
2022-08-03T00:20:05.203Z,67
2022-08-03T00:21:01.033Z,67
2022-08-03T00:22:01.115Z,67
2022-08-03T00:23:01.032Z,67
2022-08-03T00:24:01.112Z,67
2022-08-03T00:25:03.718Z,67
2022-08-03T00:26:01.117Z,68
2022-08-03T00:27:01.062Z,68
2022-08-03T00:28:01.165Z,68
2022-08-03T00:29:01.069Z,68
2022-08-03T00:30:04.440Z,68
2022-08-03T00:31:01.090Z,68
2022-08-03T00:32:01.156Z,68
2022-08-03T00:33:01.151Z,68
2022-08-03T00:34:03.456Z,68
2022-08-03T00:35:08.062Z,68
2022-08-03T00:36:01.190Z,68
2022-08-03T00:37:01.143Z,68
2022-08-03T00:38:01.186Z,68
2022-08-03T00:39:01.169Z,68
2022-08-03T00:40:03.676Z,68
2022-08-03T00:41:00.172Z,68
2022-08-03T00:42:00.236Z,68
2022-08-03T00:43:00.169Z,68
2022-08-03T00:44:00.225Z,68
2022-08-03T00:45:03.652Z,68
2022-08-03T00:46:00.264Z,68
2022-08-03T00:47:00.315Z,68
2022-08-03T00:48:00.271Z,68
2022-08-03T00:49:00.318Z,68
2022-08-03T00:50:03.330Z,69
2022-08-03T00:51:00.247Z,69
2022-08-03T00:52:00.319Z,69
2022-08-03T00:53:00.248Z,69
2022-08-03T00:54:00.336Z,69
2022-08-03T00:55:03.374Z,69
2022-08-03T00:56:00.332Z,69
2022-08-03T00:57:00.579Z,69
2022-08-03T00:58:00.356Z,69
2022-08-03T00:59:00.283Z,69
2022-08-03T01:00:03.951Z,69
2022-08-03T01:01:00.406Z,69
2022-08-03T01:02:00.362Z,69
2022-08-03T01:03:00.323Z,69
2022-08-03T01:04:00.434Z,69
2022-08-03T01:05:03.182Z,70
2022-08-03T01:06:00.423Z,70
2022-08-03T01:07:00.378Z,70
2022-08-03T01:08:00.405Z,70
2022-08-03T01:09:00.377Z,70
2022-08-03T01:10:05.472Z,70
2022-08-03T01:11:00.675Z,70
2022-08-03T01:12:01.885Z,70
2022-08-03T01:13:00.385Z,70
2022-08-03T01:14:18.030Z,70
2022-08-03T01:15:03.208Z,70
2022-08-03T01:16:01.187Z,70
2022-08-03T01:17:00.418Z,70
2022-08-03T01:18:00.506Z,70
2022-08-03T01:19:00.453Z,70
2022-08-03T01:20:05.237Z,72
2022-08-03T01:21:00.471Z,72
2022-08-03T01:22:00.563Z,72
2022-08-03T01:23:00.478Z,72
2022-08-03T01:24:00.552Z,72
2022-08-03T01:25:03.217Z,72
2022-08-03T01:26:00.558Z,72
2022-08-03T01:27:00.516Z,72
2022-08-03T01:28:00.620Z,73
2022-08-03T01:29:00.521Z,73
2022-08-03T01:30:03.603Z,73
2022-08-03T01:31:00.562Z,73
2022-08-03T01:32:59.233Z,73
2022-08-03T01:33:01.873Z,73
2022-08-03T01:34:00.792Z,73
2022-08-03T01:35:03.956Z,73
2022-08-03T01:36:00.691Z,73
2022-08-03T01:37:00.603Z,73
2022-08-03T01:38:00.678Z,72
2022-08-03T01:39:00.628Z,72
2022-08-03T01:40:04.250Z,72
2022-08-03T01:41:00.643Z,72
2022-08-03T01:42:00.738Z,72
2022-08-03T01:43:00.668Z,72
2022-08-03T01:44:29.965Z,72
2022-08-03T01:45:17.136Z,72
2022-08-03T01:46:00.751Z,72
2022-08-03T01:47:00.692Z,72
2022-08-03T01:48:00.772Z,72
2022-08-03T01:49:00.730Z,72
2022-08-03T01:50:03.751Z,72
2022-08-03T01:51:00.750Z,72
2022-08-03T01:52:03.821Z,73
2022-08-03T01:53:00.753Z,73
2022-08-03T01:54:00.817Z,73
2022-08-03T01:55:03.652Z,73
2022-08-03T01:56:00.817Z,73
2022-08-03T01:57:00.800Z,73
2022-08-03T01:58:05.873Z,73
2022-08-03T01:59:00.780Z,73
2022-08-03T02:00:04.367Z,73
2022-08-03T02:01:00.848Z,73
2022-08-03T02:02:28.536Z,73
2022-08-03T02:03:00.843Z,73
2022-08-03T02:04:01.252Z,73
2022-08-03T02:05:03.709Z,73
2022-08-03T02:06:59.710Z,73
2022-08-03T02:07:03.167Z,73
2022-08-03T02:08:00.915Z,74
2022-08-03T02:09:00.873Z,74
2022-08-03T02:10:04.041Z,74
2022-08-03T02:11:00.863Z,74
2022-08-03T02:12:00.938Z,74
2022-08-03T02:13:00.877Z,74
2022-08-03T02:14:00.929Z,74
2022-08-03T02:15:03.678Z,74
2022-08-03T02:16:00.953Z,74
2022-08-03T02:17:00.901Z,74
2022-08-03T02:18:00.987Z,74
2022-08-03T02:19:00.920Z,74
2022-08-03T02:20:05.245Z,74
2022-08-03T02:21:00.936Z,74
2022-08-03T02:22:01.863Z,74
2022-08-03T02:23:00.925Z,74
2022-08-03T02:24:01.038Z,74
2022-08-03T02:25:03.685Z,74
2022-08-03T02:26:01.939Z,74
2022-08-03T02:27:00.967Z,74
2022-08-03T02:28:01.038Z,74
2022-08-03T02:29:00.973Z,74
2022-08-03T02:30:04.235Z,74
2022-08-03T02:31:00.992Z,75
2022-08-03T02:32:01.096Z,75
2022-08-03T02:33:01.010Z,75
2022-08-03T02:34:01.085Z,75
2022-08-03T02:35:04.542Z,75
2022-08-03T02:36:01.124Z,75
2022-08-03T02:37:01.041Z,75
2022-08-03T02:38:01.252Z,75
2022-08-03T02:39:01.060Z,75
2022-08-03T02:40:04.220Z,75
2022-08-03T02:41:01.071Z,75
2022-08-03T02:42:01.161Z,75
2022-08-03T02:43:01.091Z,75
2022-08-03T02:44:05.903Z,75
2022-08-03T02:45:03.904Z,75
2022-08-03T02:46:01.190Z,75
2022-08-03T02:47:01.120Z,75
2022-08-03T02:48:01.206Z,75
2022-08-03T02:49:01.227Z,75
2022-08-03T02:50:04.754Z,75
2022-08-03T02:51:01.153Z,75
2022-08-03T02:52:01.215Z,75
2022-08-03T02:53:01.156Z,75
2022-08-03T02:54:00.236Z,75
2022-08-03T02:55:02.927Z,75
2022-08-03T02:56:00.311Z,74
2022-08-03T02:57:00.201Z,74
2022-08-03T02:58:01.490Z,75
2022-08-03T02:59:00.216Z,75
2022-08-03T03:00:03.643Z,75
2022-08-03T03:01:00.302Z,75
2022-08-03T03:02:00.320Z,75
2022-08-03T03:03:00.490Z,75
2022-08-03T03:04:00.323Z,75
2022-08-03T03:05:51.792Z,75
2022-08-03T03:06:00.333Z,75
2022-08-03T03:07:01.888Z,75
2022-08-03T03:08:00.343Z,75
2022-08-03T03:09:00.284Z,75
2022-08-03T03:10:03.664Z,75
2022-08-03T03:11:00.287Z,75
2022-08-03T03:12:00.378Z,75
2022-08-03T03:13:00.301Z,75
2022-08-03T03:14:00.365Z,75
2022-08-03T03:15:03.052Z,75
2022-08-03T03:16:00.373Z,75
2022-08-03T03:17:00.333Z,75
2022-08-03T03:18:00.391Z,75
2022-08-03T03:19:00.325Z,75
2022-08-03T03:20:05.229Z,75
2022-08-03T03:21:00.357Z,75
2022-08-03T03:22:00.408Z,75
2022-08-03T03:23:00.431Z,75
2022-08-03T03:24:00.426Z,75
2022-08-03T03:25:04.511Z,75
2022-08-03T03:26:00.464Z,75
2022-08-03T03:27:00.419Z,75
2022-08-03T03:28:00.464Z,75
2022-08-03T03:29:00.402Z,75
2022-08-03T03:30:04.475Z,75
2022-08-03T03:31:00.433Z,75
2022-08-03T03:32:00.516Z,75
2022-08-03T03:33:00.457Z,75
2022-08-03T03:34:00.500Z,75
2022-08-03T03:35:03.213Z,75
2022-08-03T03:36:00.538Z,75
2022-08-03T03:37:00.479Z,75
2022-08-03T03:38:00.568Z,75
2022-08-03T03:39:00.497Z,75
2022-08-03T03:40:04.999Z,75
2022-08-03T03:41:00.488Z,75
2022-08-03T03:42:00.580Z,75
2022-08-03T03:43:00.501Z,75
2022-08-03T03:44:00.772Z,75
2022-08-03T03:45:03.327Z,75
2022-08-03T03:46:00.572Z,75
2022-08-03T03:47:00.534Z,76
2022-08-03T03:48:00.605Z,76
2022-08-03T03:49:00.572Z,76
2022-08-03T03:50:03.790Z,76
2022-08-03T03:51:00.563Z,76
2022-08-03T03:52:00.614Z,76
2022-08-03T03:53:00.571Z,76
2022-08-03T03:54:00.625Z,76
2022-08-03T03:55:03.352Z,76
2022-08-03T03:56:02.839Z,76
2022-08-03T03:57:00.614Z,76
2022-08-03T03:58:00.679Z,76
2022-08-03T03:59:00.612Z,76
2022-08-03T04:00:03.987Z,76
2022-08-03T04:01:00.828Z,76
2022-08-03T04:02:00.733Z,76
2022-08-03T04:03:00.679Z,76
2022-08-03T04:04:00.735Z,76
2022-08-03T04:05:03.522Z,76
2022-08-03T04:06:00.767Z,76
2022-08-03T04:07:00.703Z,76
2022-08-03T04:08:01.223Z,76
2022-08-03T04:09:00.713Z,76
2022-08-03T04:10:14.152Z,76
2022-08-03T04:11:00.726Z,76
2022-08-03T04:12:00.811Z,76
2022-08-03T04:13:00.748Z,76
2022-08-03T04:14:01.996Z,76
2022-08-03T04:15:03.711Z,76
2022-08-03T04:16:00.838Z,76
2022-08-03T04:17:00.765Z,76
2022-08-03T04:18:00.870Z,76
2022-08-03T04:19:00.775Z,76
2022-08-03T04:20:04.759Z,76
2022-08-03T04:21:00.811Z,76
2022-08-03T04:22:00.858Z,76
2022-08-03T04:23:00.813Z,76
2022-08-03T04:24:00.903Z,76
2022-08-03T04:25:04.229Z,76
2022-08-03T04:26:00.929Z,76
2022-08-03T04:27:00.879Z,76
2022-08-03T04:28:09.718Z,76
2022-08-03T04:29:00.871Z,76
2022-08-03T04:30:04.094Z,76
2022-08-03T04:31:00.929Z,76
2022-08-03T04:32:00.993Z,76
2022-08-03T04:33:00.912Z,76
2022-08-03T04:34:00.988Z,76
2022-08-03T04:35:03.996Z,76
2022-08-03T04:36:03.195Z,76
2022-08-03T04:37:00.936Z,76
2022-08-03T04:38:01.048Z,76
2022-08-03T04:39:00.957Z,76
2022-08-03T04:40:04.256Z,76
2022-08-03T04:41:00.961Z,76
2022-08-03T04:42:08.242Z,76
2022-08-03T04:43:00.967Z,76
2022-08-03T04:44:01.068Z,76
2022-08-03T04:45:03.750Z,76
2022-08-03T04:46:01.057Z,76
2022-08-03T04:47:01.040Z,76
2022-08-03T04:48:02.970Z,76
2022-08-03T04:49:01.105Z,76
2022-08-03T04:50:06.324Z,76
2022-08-03T04:51:01.041Z,76
2022-08-03T04:52:01.099Z,76
2022-08-03T04:53:01.055Z,76
2022-08-03T04:54:01.126Z,76
2022-08-03T04:55:03.964Z,76
2022-08-03T04:56:01.409Z,76
2022-08-03T04:57:01.071Z,75
2022-08-03T04:58:01.149Z,75
2022-08-03T04:59:01.076Z,75
2022-08-03T05:00:05.702Z,75
2022-08-03T05:01:01.085Z,75
2022-08-03T05:02:01.293Z,75
2022-08-03T05:03:01.110Z,75
2022-08-03T05:04:01.180Z,75
2022-08-03T05:05:03.891Z,75
2022-08-03T05:06:09.532Z,75
2022-08-03T05:07:11.593Z,75
2022-08-03T05:08:01.222Z,75
2022-08-03T05:09:01.154Z,75
2022-08-03T05:10:15.798Z,76
2022-08-03T05:11:01.153Z,76
2022-08-03T05:12:01.242Z,76
2022-08-03T05:13:00.159Z,76
2022-08-03T05:14:00.266Z,76
2022-08-03T05:15:03.070Z,75
2022-08-03T05:16:00.235Z,75
2022-08-03T05:17:00.173Z,75
2022-08-03T05:18:00.301Z,76
2022-08-03T05:19:00.254Z,76
2022-08-03T05:20:04.768Z,75
2022-08-03T05:21:00.230Z,75
2022-08-03T05:22:00.292Z,75
2022-08-03T05:23:00.230Z,75
2022-08-03T05:24:00.334Z,75
2022-08-03T05:25:03.083Z,75
2022-08-03T05:26:00.347Z,75
2022-08-03T05:27:00.285Z,75
2022-08-03T05:28:00.346Z,75
2022-08-03T05:29:00.287Z,75
2022-08-03T05:30:31.224Z,75
2022-08-03T05:31:00.295Z,75
2022-08-03T05:32:02.638Z,75
2022-08-03T05:33:00.317Z,74
2022-08-03T05:34:00.402Z,74
2022-08-03T05:36:01.089Z,74
2022-08-03T05:36:03.958Z,74
2022-08-03T05:37:00.339Z,74
2022-08-03T05:38:00.407Z,74
2022-08-03T05:39:02.741Z,74
2022-08-03T05:40:03.678Z,74
2022-08-03T05:41:21.021Z,74
2022-08-03T05:42:00.446Z,74
2022-08-03T05:43:00.383Z,73
2022-08-03T05:44:00.467Z,73
2022-08-03T05:45:03.195Z,73
2022-08-03T05:46:12.066Z,73
2022-08-03T05:47:00.396Z,73
2022-08-03T05:48:00.467Z,73
2022-08-03T05:49:00.506Z,73
2022-08-03T05:50:04.000Z,73
2022-08-03T05:51:00.429Z,73
2022-08-03T05:52:11.431Z,73
2022-08-03T05:53:00.435Z,72
2022-08-03T05:54:00.495Z,72
2022-08-03T05:55:03.439Z,71
2022-08-03T05:56:13.185Z,71
2022-08-03T05:57:00.459Z,71
2022-08-03T05:58:00.501Z,71
2022-08-03T05:59:11.530Z,71
2022-08-03T06:00:04.953Z,71
2022-08-03T06:01:00.503Z,71
2022-08-03T06:02:00.706Z,71
2022-08-03T06:03:00.515Z,70
2022-08-03T06:04:00.573Z,70
2022-08-03T06:05:03.190Z,70
2022-08-03T06:06:00.892Z,70
2022-08-03T06:07:00.549Z,70
2022-08-03T06:08:00.648Z,69
2022-08-03T06:09:00.558Z,69
2022-08-03T06:10:35.817Z,68
2022-08-03T06:11:00.569Z,68
2022-08-03T06:12:00.641Z,68
2022-08-03T06:13:00.589Z,67
2022-08-03T06:14:00.670Z,67
2022-08-03T06:15:05.166Z,67
2022-08-03T06:16:00.684Z,67
2022-08-03T06:17:00.632Z,67
2022-08-03T06:18:02.111Z,67
2022-08-03T06:19:00.636Z,67
2022-08-03T06:20:04.782Z,67
2022-08-03T06:21:14.530Z,67
2022-08-03T06:22:00.759Z,67
2022-08-03T06:23:01.233Z,67
2022-08-03T06:24:00.723Z,67
2022-08-03T06:25:05.036Z,67
2022-08-03T06:26:00.763Z,66
2022-08-03T06:27:00.703Z,66
2022-08-03T06:28:00.757Z,66
2022-08-03T06:29:00.680Z,66
2022-08-03T06:30:03.805Z,65
2022-08-03T06:31:00.728Z,65
2022-08-03T06:32:00.807Z,65
2022-08-03T06:33:00.745Z,64
2022-08-03T06:34:34.262Z,64
2022-08-03T06:35:03.503Z,64
2022-08-03T06:36:00.821Z,63
2022-08-03T06:37:02.378Z,63
2022-08-03T06:38:00.874Z,63
2022-08-03T06:39:00.777Z,62
2022-08-03T06:40:04.183Z,62
2022-08-03T06:41:00.779Z,61
2022-08-03T06:42:00.869Z,61
2022-08-03T06:43:00.788Z,61
2022-08-03T06:44:03.573Z,61
2022-08-03T06:45:03.765Z,61
2022-08-03T06:46:00.877Z,61
2022-08-03T06:47:00.813Z,61
2022-08-03T06:48:00.891Z,61
2022-08-03T06:49:00.845Z,60
2022-08-03T06:50:12.709Z,60
2022-08-03T06:51:00.859Z,60
2022-08-03T06:52:04.415Z,60
2022-08-03T06:53:00.841Z,59
2022-08-03T06:54:01.111Z,59
2022-08-03T06:55:03.677Z,59
2022-08-03T06:56:00.969Z,59
2022-08-03T06:57:00.909Z,59
2022-08-03T06:58:03.556Z,59
2022-08-03T06:59:00.887Z,58
2022-08-03T07:00:10.938Z,58
2022-08-03T07:01:00.980Z,58
2022-08-03T07:02:01.049Z,58
2022-08-03T07:03:00.943Z,58
2022-08-03T07:04:01.016Z,57
2022-08-03T07:05:04.357Z,57
2022-08-03T07:06:01.038Z,57
2022-08-03T07:07:00.977Z,57
2022-08-03T07:08:01.060Z,57
2022-08-03T07:09:00.984Z,57
2022-08-03T07:10:05.178Z,57
2022-08-03T07:11:01.004Z,57
2022-08-03T07:12:01.082Z,56
2022-08-03T07:13:01.005Z,56
2022-08-03T07:14:01.115Z,55
2022-08-03T07:15:04.060Z,55
2022-08-03T07:16:01.108Z,55
2022-08-03T07:17:01.029Z,55
2022-08-03T07:18:01.119Z,55
2022-08-03T07:19:01.038Z,55
2022-08-03T07:20:04.797Z,55
2022-08-03T07:21:01.073Z,55
2022-08-03T07:22:02.364Z,54
2022-08-03T07:23:01.081Z,54
2022-08-03T07:24:01.164Z,54
2022-08-03T07:25:03.805Z,55
2022-08-03T07:26:01.233Z,55
2022-08-03T07:27:01.117Z,55
2022-08-03T07:28:01.184Z,55
2022-08-03T07:29:01.123Z,54
2022-08-03T07:30:07.670Z,54
2022-08-03T07:31:01.131Z,54
2022-08-03T07:32:01.256Z,54
2022-08-03T07:33:01.156Z,54
2022-08-03T07:34:01.197Z,53
2022-08-03T07:35:03.950Z,53
2022-08-03T07:36:00.228Z,53
2022-08-03T07:37:00.169Z,54
2022-08-03T07:38:00.242Z,54
2022-08-03T07:39:00.195Z,54
2022-08-03T07:40:03.469Z,54
2022-08-03T07:41:00.214Z,54
2022-08-03T07:42:00.295Z,53
2022-08-03T07:43:00.237Z,53
2022-08-03T07:44:00.283Z,53
2022-08-03T07:45:03.031Z,53
2022-08-03T07:46:00.275Z,53
2022-08-03T07:47:03.231Z,52
2022-08-03T07:48:00.321Z,52
2022-08-03T07:49:00.290Z,52
2022-08-03T07:50:03.608Z,52
2022-08-03T07:51:00.257Z,52
2022-08-03T07:52:00.315Z,52
2022-08-03T07:53:00.271Z,52
2022-08-03T07:54:00.333Z,51
2022-08-03T07:55:03.056Z,51
2022-08-03T07:56:00.528Z,51
2022-08-03T07:57:00.300Z,51
2022-08-03T07:58:00.386Z,51
2022-08-03T07:59:00.292Z,51
2022-08-03T08:00:04.079Z,51
2022-08-03T08:01:00.407Z,51
2022-08-03T08:02:00.409Z,51
2022-08-03T08:03:00.349Z,51
2022-08-03T08:04:00.402Z,50
2022-08-03T08:05:05.911Z,50
2022-08-03T08:06:00.441Z,50
2022-08-03T08:07:00.379Z,49
2022-08-03T08:08:00.461Z,49
2022-08-03T08:09:00.404Z,49
2022-08-03T08:10:03.743Z,49
2022-08-03T08:11:00.398Z,48
2022-08-03T08:12:00.491Z,48
2022-08-03T08:13:00.415Z,48
2022-08-03T08:14:00.612Z,48
2022-08-03T08:15:03.385Z,47
2022-08-03T08:16:00.497Z,47
2022-08-03T08:17:04.353Z,46
2022-08-03T08:18:00.525Z,46
2022-08-03T08:19:00.454Z,46
2022-08-03T08:20:04.820Z,46
2022-08-03T08:21:00.480Z,46
2022-08-03T08:22:02.734Z,46
2022-08-03T08:23:01.493Z,46
2022-08-03T08:24:00.601Z,45
2022-08-03T08:25:03.273Z,45
2022-08-03T08:26:00.600Z,45
2022-08-03T08:27:00.521Z,45
2022-08-03T08:28:22.362Z,45
2022-08-03T08:29:00.553Z,45
2022-08-03T08:30:11.524Z,45
2022-08-03T08:31:00.541Z,45
2022-08-03T08:32:00.622Z,44
2022-08-03T08:33:00.553Z,44
2022-08-03T08:34:04.101Z,43
2022-08-03T08:35:03.450Z,43
2022-08-03T08:36:00.638Z,43
2022-08-03T08:37:00.571Z,41
2022-08-03T08:38:04.195Z,41
2022-08-03T08:39:00.588Z,41
2022-08-03T08:40:03.904Z,41
2022-08-03T08:41:00.592Z,41
2022-08-03T08:42:00.678Z,41
2022-08-03T08:43:00.610Z,41
2022-08-03T08:44:00.725Z,41
2022-08-03T08:45:03.468Z,41
2022-08-03T08:46:00.713Z,41
2022-08-03T08:47:00.639Z,40
2022-08-03T08:48:03.531Z,40
2022-08-03T08:49:00.695Z,40
2022-08-03T08:50:10.274Z,40
2022-08-03T08:51:00.674Z,40
2022-08-03T08:52:01.683Z,40
2022-08-03T08:53:00.669Z,40
2022-08-03T08:54:00.740Z,40
2022-08-03T08:55:03.564Z,40
2022-08-03T08:56:01.209Z,40
2022-08-03T08:57:00.708Z,39
2022-08-03T08:58:00.765Z,39
2022-08-03T08:59:00.701Z,39
2022-08-03T09:00:04.752Z,39
2022-08-03T09:01:00.823Z,39
2022-08-03T09:02:01.291Z,39
2022-08-03T09:03:00.765Z,39
2022-08-03T09:04:01.526Z,39
2022-08-03T09:05:07.318Z,39
2022-08-03T09:06:01.697Z,39
2022-08-03T09:07:19.232Z,39
2022-08-03T09:08:02.027Z,38
2022-08-03T09:09:00.787Z,38
2022-08-03T09:10:11.419Z,38
2022-08-03T09:11:00.805Z,38
2022-08-03T09:12:09.009Z,38
2022-08-03T09:13:00.817Z,38
2022-08-03T09:14:01.981Z,38
2022-08-03T09:15:16.530Z,38
2022-08-03T09:16:01.419Z,38
2022-08-03T09:17:00.860Z,38
2022-08-03T09:18:00.928Z,37
2022-08-03T09:19:00.842Z,37
2022-08-03T09:20:04.812Z,38
2022-08-03T09:21:14.750Z,38
2022-08-03T09:22:00.935Z,38
2022-08-03T09:23:00.881Z,37
2022-08-03T09:24:02.950Z,37
2022-08-03T09:25:23.400Z,36
2022-08-03T09:26:00.970Z,36
2022-08-03T09:27:00.913Z,36
2022-08-03T09:28:00.961Z,36
2022-08-03T09:29:04.881Z,36
2022-08-03T09:30:04.051Z,36
2022-08-03T09:31:00.935Z,36
2022-08-03T09:32:01.028Z,36
2022-08-03T09:33:00.955Z,36
2022-08-03T09:34:01.024Z,36
2022-08-03T09:35:05.073Z,36
2022-08-03T09:36:01.039Z,36
2022-08-03T09:37:00.972Z,36
2022-08-03T09:38:12.206Z,36
2022-08-03T09:39:00.998Z,36
2022-08-03T09:40:04.345Z,36
2022-08-03T09:41:01.151Z,36
2022-08-03T09:42:01.056Z,36
2022-08-03T09:43:01.016Z,35
2022-08-03T09:44:01.086Z,35
2022-08-03T09:45:04.309Z,35
2022-08-03T09:46:01.093Z,35
2022-08-03T09:47:01.046Z,35
2022-08-03T09:48:01.132Z,35
2022-08-03T09:49:01.093Z,35
2022-08-03T09:50:04.217Z,35
2022-08-03T09:51:12.877Z,35
2022-08-03T09:52:28.929Z,35
2022-08-03T09:53:01.114Z,35
2022-08-03T09:54:01.180Z,35
2022-08-03T09:55:04.540Z,35
2022-08-03T09:56:34.094Z,35
2022-08-03T09:57:01.141Z,35
2022-08-03T09:58:01.198Z,35
2022-08-03T09:59:01.145Z,35
2022-08-03T10:00:08.161Z,35
2022-08-03T10:01:00.356Z,35
2022-08-03T10:02:00.278Z,35
2022-08-03T10:03:00.207Z,35
2022-08-03T10:04:04.276Z,35
2022-08-03T10:05:03.191Z,35
2022-08-03T10:06:00.408Z,34
2022-08-03T10:07:00.224Z,34
2022-08-03T10:08:00.320Z,34
2022-08-03T10:09:00.235Z,34
2022-08-03T10:10:31.053Z,34
2022-08-03T10:11:00.235Z,35
2022-08-03T10:12:00.318Z,35
2022-08-03T10:13:00.341Z,35
2022-08-03T10:14:01.475Z,35
2022-08-03T10:15:03.299Z,35
2022-08-03T10:16:23.841Z,35
2022-08-03T10:17:00.292Z,35
2022-08-03T10:18:00.378Z,35
2022-08-03T10:19:00.325Z,35
2022-08-03T10:20:04.841Z,35
2022-08-03T10:21:00.334Z,35
2022-08-03T10:22:00.438Z,35
2022-08-03T10:23:00.333Z,35
2022-08-03T10:24:00.433Z,35
2022-08-03T10:25:03.210Z,35
2022-08-03T10:26:00.457Z,35
2022-08-03T10:27:00.368Z,35
2022-08-03T10:28:00.436Z,35
2022-08-03T10:29:00.374Z,35
2022-08-03T10:30:04.831Z,35
2022-08-03T10:31:00.409Z,35
2022-08-03T10:32:00.576Z,35
2022-08-03T10:33:00.415Z,35
2022-08-03T10:34:00.454Z,34
2022-08-03T10:35:13.021Z,34
2022-08-03T10:36:00.499Z,34
2022-08-03T10:37:00.438Z,34
2022-08-03T10:38:00.561Z,34
2022-08-03T10:39:00.441Z,33
2022-08-03T10:40:03.929Z,33
2022-08-03T10:41:00.445Z,33
2022-08-03T10:42:02.534Z,33
2022-08-03T10:43:00.462Z,33
2022-08-03T10:44:00.529Z,33
2022-08-03T10:45:03.262Z,33
2022-08-03T10:46:00.531Z,33
2022-08-03T10:47:00.496Z,33
2022-08-03T10:48:00.574Z,33
2022-08-03T10:49:00.568Z,33
2022-08-03T10:50:04.245Z,33
2022-08-03T10:51:00.545Z,33
2022-08-03T10:52:00.600Z,33
2022-08-03T10:53:01.930Z,33
2022-08-03T10:54:01.809Z,34
2022-08-03T10:55:07.519Z,34
2022-08-03T10:56:00.670Z,34
2022-08-03T10:57:03.433Z,34
2022-08-03T10:58:00.643Z,34
2022-08-03T10:59:00.588Z,34
2022-08-03T11:00:05.095Z,34
2022-08-03T11:01:00.683Z,33
2022-08-03T11:02:01.292Z,33
2022-08-03T11:03:00.667Z,33
2022-08-03T11:04:00.710Z,33
2022-08-03T11:05:03.404Z,33
2022-08-03T11:06:00.716Z,33
2022-08-03T11:07:00.652Z,33
2022-08-03T11:08:01.008Z,33
2022-08-03T11:09:00.675Z,33
2022-08-03T11:10:07.733Z,33
2022-08-03T11:11:00.672Z,32
2022-08-03T11:12:00.786Z,32
2022-08-03T11:13:00.694Z,32
2022-08-03T11:14:00.788Z,32
2022-08-03T11:15:03.704Z,32
2022-08-03T11:16:02.408Z,32
2022-08-03T11:17:00.697Z,31
2022-08-03T11:18:00.785Z,31
2022-08-03T11:19:00.726Z,31
2022-08-03T11:20:04.871Z,31
2022-08-03T11:21:00.748Z,31
2022-08-03T11:22:00.796Z,31
2022-08-03T11:23:00.750Z,31
2022-08-03T11:24:02.615Z,31
2022-08-03T11:25:03.736Z,32
2022-08-03T11:26:00.892Z,32
2022-08-03T11:27:05.778Z,31
2022-08-03T11:28:00.888Z,31
2022-08-03T11:29:00.785Z,31
2022-08-03T11:30:04.427Z,31
2022-08-03T11:31:00.797Z,31
2022-08-03T11:32:00.886Z,31
2022-08-03T11:33:00.819Z,31
2022-08-03T11:34:00.867Z,31
2022-08-03T11:35:03.794Z,32
2022-08-03T11:36:00.926Z,32
2022-08-03T11:37:00.824Z,33
2022-08-03T11:38:03.415Z,33
2022-08-03T11:39:00.861Z,33
2022-08-03T11:40:04.013Z,33
2022-08-03T11:41:00.857Z,33
2022-08-03T11:42:01.064Z,32
2022-08-03T11:43:00.874Z,32
2022-08-03T11:44:00.991Z,32
2022-08-03T11:45:06.205Z,32
2022-08-03T11:46:00.979Z,32
2022-08-03T11:47:00.913Z,32
2022-08-03T11:48:00.982Z,32
2022-08-03T11:49:00.983Z,32
2022-08-03T11:50:05.547Z,32
2022-08-03T11:51:00.942Z,32
2022-08-03T11:52:01.009Z,32
2022-08-03T11:53:00.955Z,32
2022-08-03T11:54:01.013Z,32
2022-08-03T11:55:05.179Z,32
2022-08-03T11:56:01.072Z,32
2022-08-03T11:57:00.996Z,32
2022-08-03T11:59:15.233Z,32
2022-08-03T11:59:20.338Z,32
2022-08-03T12:00:04.142Z,32
2022-08-03T12:01:01.026Z,32
2022-08-03T12:02:01.113Z,32
2022-08-03T12:03:01.111Z,32
2022-08-03T12:04:01.099Z,32
2022-08-03T12:05:03.968Z,32
2022-08-03T12:06:01.129Z,32
2022-08-03T12:07:01.060Z,32
2022-08-03T12:08:03.930Z,31
2022-08-03T12:09:01.073Z,31
2022-08-03T12:10:05.557Z,31
2022-08-03T12:11:01.093Z,31
2022-08-03T12:12:01.419Z,31
2022-08-03T12:13:01.100Z,30
2022-08-03T12:14:48.748Z,30
2022-08-03T12:15:04.274Z,30
2022-08-03T12:16:01.174Z,30
2022-08-03T12:17:01.125Z,30
2022-08-03T12:18:01.190Z,30
2022-08-03T12:19:01.154Z,30
2022-08-03T12:20:05.700Z,29
2022-08-03T12:21:00.180Z,29
2022-08-03T12:22:00.211Z,29
2022-08-03T12:23:00.179Z,29
2022-08-03T12:24:00.575Z,29
2022-08-03T12:25:02.992Z,30
2022-08-03T12:26:00.269Z,30
2022-08-03T12:27:00.347Z,30
2022-08-03T12:28:00.253Z,30
2022-08-03T12:29:00.205Z,30
2022-08-03T12:30:03.467Z,30
2022-08-03T12:31:00.228Z,30
2022-08-03T12:32:00.303Z,30
2022-08-03T12:33:00.245Z,29
2022-08-03T12:34:00.290Z,29
2022-08-03T12:35:03.016Z,30
2022-08-03T12:36:00.323Z,30
2022-08-03T12:37:00.271Z,30
2022-08-03T12:38:00.337Z,30
2022-08-03T12:39:00.275Z,30
2022-08-03T12:40:10.076Z,30
2022-08-03T12:41:00.283Z,30
2022-08-03T12:42:00.346Z,30
2022-08-03T12:43:00.295Z,30
2022-08-03T12:44:00.370Z,30
2022-08-03T12:45:04.515Z,29
2022-08-03T12:46:00.382Z,29
2022-08-03T12:47:00.306Z,29
2022-08-03T12:48:00.409Z,29
2022-08-03T12:49:00.443Z,29
2022-08-03T12:50:03.473Z,29
2022-08-03T12:51:00.367Z,29
2022-08-03T12:52:05.253Z,29
2022-08-03T12:53:00.375Z,29
2022-08-03T12:54:00.441Z,29
2022-08-03T12:55:03.234Z,29
2022-08-03T12:56:05.086Z,29
2022-08-03T12:57:00.402Z,29
2022-08-03T12:58:00.469Z,29
2022-08-03T12:59:00.391Z,29
2022-08-03T13:00:05.497Z,29
2022-08-03T13:01:00.432Z,29
2022-08-03T13:02:00.609Z,29
2022-08-03T13:03:24.810Z,30
2022-08-03T13:04:00.544Z,30
2022-08-03T13:05:04.666Z,30
2022-08-03T13:06:00.561Z,30
2022-08-03T13:07:02.915Z,30
2022-08-03T13:08:00.617Z,30
2022-08-03T13:09:00.522Z,30
2022-08-03T13:10:07.655Z,30
2022-08-03T13:11:00.529Z,31
2022-08-03T13:12:02.351Z,31
2022-08-03T13:13:00.538Z,31
2022-08-03T13:14:00.675Z,31
2022-08-03T13:15:03.403Z,31
2022-08-03T13:16:00.644Z,31
2022-08-03T13:17:00.585Z,31
2022-08-03T13:18:00.654Z,31
2022-08-03T13:19:00.594Z,31
2022-08-03T13:20:05.046Z,31
2022-08-03T13:21:00.613Z,31
2022-08-03T13:22:03.899Z,31
2022-08-03T13:23:01.178Z,30
2022-08-03T13:24:00.696Z,30
2022-08-03T13:25:03.582Z,30
2022-08-03T13:26:00.749Z,30
2022-08-03T13:27:00.646Z,30
2022-08-03T13:28:04.013Z,30
2022-08-03T13:29:00.659Z,30
2022-08-03T13:30:03.988Z,30
2022-08-03T13:31:00.676Z,29
2022-08-03T13:32:00.777Z,29
2022-08-03T13:33:00.702Z,29
2022-08-03T13:34:00.773Z,29
2022-08-03T13:35:04.511Z,29
2022-08-03T13:36:00.790Z,29
2022-08-03T13:37:09.054Z,29
2022-08-03T13:38:00.843Z,29
2022-08-03T13:39:00.731Z,29
2022-08-03T13:40:04.751Z,29
2022-08-03T13:41:00.744Z,30
2022-08-03T13:42:00.811Z,30
2022-08-03T13:43:00.764Z,29
2022-08-03T13:44:25.379Z,29
2022-08-03T13:45:04.027Z,29
2022-08-03T13:46:00.844Z,29
2022-08-03T13:47:00.782Z,29
2022-08-03T13:48:00.899Z,29
2022-08-03T13:49:00.806Z,29
2022-08-03T13:50:03.957Z,29
2022-08-03T13:51:05.353Z,29
2022-08-03T13:52:00.899Z,29
2022-08-03T13:53:00.830Z,29
2022-08-03T13:54:00.907Z,28
2022-08-03T13:55:03.768Z,28
2022-08-03T13:56:00.930Z,28
2022-08-03T13:57:00.877Z,28
2022-08-03T13:58:05.896Z,28
2022-08-03T13:59:00.887Z,28
2022-08-03T14:00:05.524Z,28
2022-08-03T14:01:00.949Z,28
2022-08-03T14:02:01.110Z,28
2022-08-03T14:03:13.672Z,28
2022-08-03T14:04:00.994Z,28
2022-08-03T14:05:03.994Z,28
2022-08-03T14:06:00.992Z,28
2022-08-03T14:07:00.925Z,28
2022-08-03T14:08:04.185Z,27
2022-08-03T14:09:00.956Z,27
2022-08-03T14:10:04.648Z,27
2022-08-03T14:11:00.949Z,28
2022-08-03T14:12:07.132Z,28
2022-08-03T14:13:00.965Z,28
2022-08-03T14:14:01.053Z,28
2022-08-03T14:15:04.171Z,28